logo
Search for airport 
image banner adimage banner adimage banner ad
image banner ad

CKP4 - Kirkfield (Palestine)

Located in Kirkfield, Canada

ICAO - CKP4, IATA -

Data provided by Airmate  

General information

Coordinates: N44°29'24" W78°58'40"
Elevation is 890 feet MSL.
Magnetic variation is -11.1075° East
View others Airports in Manitoba

Operational data

Special qualification required
Current time UTC:
Current local time:
Weather at : CYPQ - Peterborough ( 57 km )
METAR: CYPQ 290100Z AUTO 00000KT 9SM BKN140 11/08 A3020 RMK SLP231
TAF: TAF AMD CYPQ 282312Z 2823/2902 VRB03KT P6SM FEW100 BKN140 OVC240 RMK FCST BASED ON AUTO OBS. AUTO OBS REP NON-REPRESENTATIVE VIS. NXT FCST BY 291000Z
View NOTAMs / SUP AIP / TFR affecting this airport [VIEW]
Communications frequencies: [VIEW]

Runways:

RWY identifierQFULength (ft)Width (ft)SurfaceLDA (ft)
08150050GRASS
26150050GRASS

Airport contact information

Address: Kirkfield Canada

Satellite view of CKP4